sensor_id;sensor_type;location;lat;lon;timestamp;pressure;altitude;pressure_sealevel;temperature;humidity
27304;BME280;14791;52.392;13.092;2023-04-08T00:02:09;101651.13;;;11.88;50.67
27304;BME280;14791;52.392;13.092;2023-04-08T00:04:38;101646.64;;;11.89;50.70
27304;BME280;14791;52.392;13.092;2023-04-08T00:07:07;101639.95;;;11.89;50.95
27304;BME280;14791;52.392;13.092;2023-04-08T00:09:36;101639.95;;;11.89;50.95
27304;BME280;14791;52.392;13.092;2023-04-08T00:12:05;101647.50;;;11.89;50.81
27304;BME280;14791;52.392;13.092;2023-04-08T00:14:34;101649.73;;;11.90;50.71
27304;BME280;14791;52.392;13.092;2023-04-08T00:17:05;101651.45;;;11.91;50.77
27304;BME280;14791;52.392;13.092;2023-04-08T00:19:34;101644.75;;;11.91;50.87
27304;BME280;14791;52.392;13.092;2023-04-08T00:22:03;101644.75;;;11.91;50.83
27304;BME280;14791;52.392;13.092;2023-04-08T00:24:32;101648.29;;;11.91;50.83
27304;BME280;14791;52.392;13.092;2023-04-08T00:27:01;101645.54;;;11.93;50.84
27304;BME280;14791;52.392;13.092;2023-04-08T00:29:29;101650.04;;;11.93;50.90
27304;BME280;14791;52.392;13.092;2023-04-08T00:31:59;101648.11;;;11.95;50.84
27304;BME280;14791;52.392;13.092;2023-04-08T00:34:27;101644.20;;;11.93;50.81
27304;BME280;14791;52.392;13.092;2023-04-08T00:36:56;101645.92;;;11.94;50.87
27304;BME280;14791;52.392;13.092;2023-04-08T00:39:25;101654.36;;;11.95;50.86
27304;BME280;14791;52.392;13.092;2023-04-08T00:41:54;101653.95;;;11.94;50.96
27304;BME280;14791;52.392;13.092;2023-04-08T00:44:24;101656.25;;;11.93;51.00
27304;BME280;14791;52.392;13.092;2023-04-08T00:46:53;101649.15;;;11.92;51.08
27304;BME280;14791;52.392;13.092;2023-04-08T00:49:22;101655.77;;;11.94;51.15
27304;BME280;14791;52.392;13.092;2023-04-08T00:51:53;101657.48;;;11.95;51.24
27304;BME280;14791;52.392;13.092;2023-04-08T00:54:22;101651.58;;;11.97;51.23
27304;BME280;14791;52.392;13.092;2023-04-08T00:56:51;101648.35;;;11.99;51.14
27304;BME280;14791;52.392;13.092;2023-04-08T00:59:20;101641.11;;;12.01;51.10
27304;BME280;14791;52.392;13.092;2023-04-08T01:04:59;101641.59;;;12.00;51.03
27304;BME280;14791;52.392;13.092;2023-04-08T01:07:31;101648.45;;;11.97;51.00
27304;BME280;14791;52.392;13.092;2023-04-08T01:10:14;101658.14;;;11.91;51.07
27304;BME280;14791;52.392;13.092;2023-04-08T01:12:40;101654.67;;;11.89;51.14
27304;BME280;14791;52.392;13.092;2023-04-08T01:15:11;101656.56;;;11.87;51.16
27304;BME280;14791;52.392;13.092;2023-04-08T01:17:41;101650.31;;;11.86;51.20
27304;BME280;14791;52.392;13.092;2023-04-08T01:20:12;101652.55;;;11.87;51.22
27304;BME280;14791;52.392;13.092;2023-04-08T01:25:32;101657.34;;;11.89;51.12
27304;BME280;14791;52.392;13.092;2023-04-08T01:28:04;101650.28;;;11.88;51.08
27304;BME280;14791;52.392;13.092;2023-04-08T01:30:34;101645.03;;;11.85;51.13
27304;BME280;14791;52.392;13.092;2023-04-08T01:33:03;101644.10;;;11.86;51.19
27304;BME280;14791;52.392;13.092;2023-04-08T01:35:33;101646.64;;;11.89;51.23
27304;BME280;14791;52.392;13.092;2023-04-08T01:38:06;101648.39;;;11.90;51.15
27304;BME280;14791;52.392;13.092;2023-04-08T01:40:37;101649.31;;;11.89;51.12
27304;BME280;14791;52.392;13.092;2023-04-08T01:43:08;101653.74;;;11.90;51.09
27304;BME280;14791;52.392;13.092;2023-04-08T01:45:38;101656.87;;;11.89;51.13
27304;BME280;14791;52.392;13.092;2023-04-08T01:48:07;101660.02;;;11.89;51.14
27304;BME280;14791;52.392;13.092;2023-04-08T01:50:38;101661.77;;;11.90;51.20
27304;BME280;14791;52.392;13.092;2023-04-08T01:53:09;101663.49;;;11.91;51.21
27304;BME280;14791;52.392;13.092;2023-04-08T01:55:40;101661.98;;;11.94;51.20
27304;BME280;14791;52.392;13.092;2023-04-08T01:58:15;101669.47;;;11.96;51.19
27304;BME280;14791;52.392;13.092;2023-04-08T02:00:44;101659.72;;;11.95;51.13
27304;BME280;14791;52.392;13.092;2023-04-08T02:03:16;101659.72;;;11.95;51.13
27304;BME280;14791;52.392;13.092;2023-04-08T02:05:46;101670.09;;;12.01;51.18
27304;BME280;14791;52.392;13.092;2023-04-08T02:08:15;101665.28;;;11.99;51.10
27304;BME280;14791;52.392;13.092;2023-04-08T02:10:44;101672.21;;;12.03;51.12
27304;BME280;14791;52.392;13.092;2023-04-08T02:13:14;101672.62;;;12.04;51.09
27304;BME280;14791;52.392;13.092;2023-04-08T02:15:47;101677.98;;;12.04;51.13
27304;BME280;14791;52.392;13.092;2023-04-08T02:18:24;101680.17;;;12.05;51.09
27304;BME280;14791;52.392;13.092;2023-04-08T02:20:52;101678.36;;;12.05;51.01
27304;BME280;14791;52.392;13.092;2023-04-08T02:23:23;101678.98;;;12.02;51.07
27304;BME280;14791;52.392;13.092;2023-04-08T02:25:56;101683.47;;;12.01;51.06
27304;BME280;14791;52.392;13.092;2023-04-08T02:28:28;101680.97;;;11.98;51.06
27304;BME280;14791;52.392;13.092;2023-04-08T02:30:59;101677.91;;;11.97;51.19
27304;BME280;14791;52.392;13.092;2023-04-08T02:33:30;101666.79;;;11.96;51.23
27304;BME280;14791;52.392;13.092;2023-04-08T02:36:01;101662.77;;;11.96;51.29
27304;BME280;14791;52.392;13.092;2023-04-08T02:38:30;101669.47;;;11.96;51.38
27304;BME280;14791;52.392;13.092;2023-04-08T02:40:59;101677.33;;;11.99;51.44
27304;BME280;14791;52.392;13.092;2023-04-08T02:43:29;101671.05;;;12.00;51.46
27304;BME280;14791;52.392;13.092;2023-04-08T02:46:02;101678.42;;;12.04;51.46
27304;BME280;14791;52.392;13.092;2023-04-08T02:48:32;101689.14;;;12.04;51.37
27304;BME280;14791;52.392;13.092;2023-04-08T02:51:01;101693.47;;;12.06;51.40
27304;BME280;14791;52.392;13.092;2023-04-08T02:53:30;101695.22;;;12.07;51.37
27304;BME280;14791;52.392;13.092;2023-04-08T02:55:59;101700.95;;;12.08;51.30
27304;BME280;14791;52.392;13.092;2023-04-08T02:58:28;101696.55;;;12.07;51.29
27304;BME280;14791;52.392;13.092;2023-04-08T03:00:57;101701.36;;;12.09;51.27
27304;BME280;14791;52.392;13.092;2023-04-08T03:03:26;101704.11;;;12.08;51.34
27304;BME280;14791;52.392;13.092;2023-04-08T03:05:56;101702.77;;;12.08;51.42
27304;BME280;14791;52.392;13.092;2023-04-08T03:08:26;101700.47;;;12.09;51.41
27304;BME280;14791;52.392;13.092;2023-04-08T03:10:54;101703.08;;;12.10;51.43
27304;BME280;14791;52.392;13.092;2023-04-08T03:13:23;101701.67;;;12.12;51.44
27304;BME280;14791;52.392;13.092;2023-04-08T03:15:53;101698.03;;;12.13;51.48
27304;BME280;14791;52.392;13.092;2023-04-08T03:18:22;101701.50;;;12.15;51.50
27304;BME280;14791;52.392;13.092;2023-04-08T03:20:51;101705.83;;;12.18;51.44
27304;BME280;14791;52.392;13.092;2023-04-08T03:23:20;101706.69;;;12.18;51.43
27304;BME280;14791;52.392;13.092;2023-04-08T03:25:48;101708.44;;;12.19;51.41
27304;BME280;14791;52.392;13.092;2023-04-08T03:28:18;101707.95;;;12.20;51.42
27304;BME280;14791;52.392;13.092;2023-04-08T03:30:47;101711.01;;;12.21;51.48
27304;BME280;14791;52.392;13.092;2023-04-08T03:33:15;101715.03;;;12.21;51.43
27304;BME280;14791;52.392;13.092;2023-04-08T03:35:44;101721.17;;;12.23;51.48
27304;BME280;14791;52.392;13.092;2023-04-08T03:38:13;101719.83;;;12.23;51.52
27304;BME280;14791;52.392;13.092;2023-04-08T03:40:42;101715.27;;;12.25;51.41
27304;BME280;14791;52.392;13.092;2023-04-08T03:43:12;101715.27;;;12.25;51.41
27304;BME280;14791;52.392;13.092;2023-04-08T03:45:41;101718.73;;;12.27;51.54
27304;BME280;14791;52.392;13.092;2023-04-08T03:48:10;101717.77;;;12.28;51.57
27304;BME280;14791;52.392;13.092;2023-04-08T03:50:39;101717.70;;;12.29;51.62
27304;BME280;14791;52.392;13.092;2023-04-08T03:53:08;101723.37;;;12.32;51.54
27304;BME280;14791;52.392;13.092;2023-04-08T03:55:38;101720.69;;;12.32;51.50
27304;BME280;14791;52.392;13.092;2023-04-08T03:58:07;101730.06;;;12.32;51.52
27304;BME280;14791;52.392;13.092;2023-04-08T04:00:36;101731.41;;;12.32;51.56
27304;BME280;14791;52.392;13.092;2023-04-08T04:03:05;101727.31;;;12.33;51.60
27304;BME280;14791;52.392;13.092;2023-04-08T04:05:35;101721.00;;;12.34;51.58
27304;BME280;14791;52.392;13.092;2023-04-08T04:08:05;101725.50;;;12.34;51.54
27304;BME280;14791;52.392;13.092;2023-04-08T04:10:34;101730.38;;;12.34;51.49
27304;BME280;14791;52.392;13.092;2023-04-08T04:13:03;101733.12;;;12.33;51.40
27304;BME280;14791;52.392;13.092;2023-04-08T04:15:32;101735.98;;;12.30;51.42
27304;BME280;14791;52.392;13.092;2023-04-08T04:18:01;101745.59;;;12.25;51.53
27304;BME280;14791;52.392;13.092;2023-04-08T04:20:30;101750.16;;;12.23;51.68
27304;BME280;14791;52.392;13.092;2023-04-08T04:22:59;101746.63;;;12.23;51.80
27304;BME280;14791;52.392;13.092;2023-04-08T04:25:28;101751.60;;;12.22;51.78
27304;BME280;14791;52.392;13.092;2023-04-08T04:27:56;101760.97;;;12.22;51.81
27304;BME280;14791;52.392;13.092;2023-04-08T04:30:25;101760.97;;;12.22;51.83
27304;BME280;14791;52.392;13.092;2023-04-08T04:32:54;101767.19;;;12.22;51.92
27304;BME280;14791;52.392;13.092;2023-04-08T04:35:24;101769.39;;;12.23;51.98
27304;BME280;14791;52.392;13.092;2023-04-08T04:37:53;101767.57;;;12.23;52.09
27304;BME280;14791;52.392;13.092;2023-04-08T04:40:22;101763.00;;;12.25;52.19
27304;BME280;14791;52.392;13.092;2023-04-08T04:42:51;101766.95;;;12.27;52.20
27304;BME280;14791;52.392;13.092;2023-04-08T04:45:19;101766.78;;;12.30;52.22
27304;BME280;14791;52.392;13.092;2023-04-08T04:47:48;101772.93;;;12.32;52.17
27304;BME280;14791;52.392;13.092;2023-04-08T04:50:17;101776.78;;;12.35;52.19
27304;BME280;14791;52.392;13.092;2023-04-08T04:52:46;101776.64;;;12.38;52.18
27304;BME280;14791;52.392;13.092;2023-04-08T04:55:15;101773.38;;;12.40;52.14
27304;BME280;14791;52.392;13.092;2023-04-08T04:57:44;101780.42;;;12.43;52.18
27304;BME280;14791;52.392;13.092;2023-04-08T05:00:13;101787.43;;;12.45;52.17
27304;BME280;14791;52.392;13.092;2023-04-08T05:03:03;101780.94;;;12.49;52.10
27304;BME280;14791;52.392;13.092;2023-04-08T05:05:32;101786.61;;;12.52;52.02
27304;BME280;14791;52.392;13.092;2023-04-08T05:08:01;101787.02;;;12.53;52.08
27304;BME280;14791;52.392;13.092;2023-04-08T05:10:29;101790.38;;;12.56;52.12
27304;BME280;14791;52.392;13.092;2023-04-08T05:12:58;101787.63;;;12.58;52.10
27304;BME280;14791;52.392;13.092;2023-04-08T05:15:27;101790.55;;;12.62;52.07
27304;BME280;14791;52.392;13.092;2023-04-08T05:17:56;101793.54;;;12.65;51.98
27304;BME280;14791;52.392;13.092;2023-04-08T05:20:25;101808.66;;;12.66;51.98
27304;BME280;14791;52.392;13.092;2023-04-08T05:22:54;101806.77;;;12.68;52.07
27304;BME280;14791;52.392;13.092;2023-04-08T05:25:22;101807.00;;;12.72;52.02
27304;BME280;14791;52.392;13.092;2023-04-08T05:27:52;101818.97;;;12.73;52.03
27304;BME280;14791;52.392;13.092;2023-04-08T05:30:21;101812.13;;;12.76;52.03
27304;BME280;14791;52.392;13.092;2023-04-08T05:32:50;101815.66;;;12.77;51.97
27304;BME280;14791;52.392;13.092;2023-04-08T05:35:19;101816.93;;;12.79;52.00
27304;BME280;14791;52.392;13.092;2023-04-08T05:37:48;101817.23;;;12.81;52.02
27304;BME280;14791;52.392;13.092;2023-04-08T05:40:17;101816.20;;;12.84;52.05
27304;BME280;14791;52.392;13.092;2023-04-08T05:42:46;101829.92;;;12.86;51.98
27304;BME280;14791;52.392;13.092;2023-04-08T05:45:15;101832.98;;;12.87;51.97
27304;BME280;14791;52.392;13.092;2023-04-08T05:47:44;101825.79;;;12.88;51.96
27304;BME280;14791;52.392;13.092;2023-04-08T05:50:13;101828.88;;;12.89;51.93
27304;BME280;14791;52.392;13.092;2023-04-08T05:52:45;101831.56;;;12.89;52.00
27304;BME280;14791;52.392;13.092;2023-04-08T05:55:14;101831.88;;;12.91;52.06
27304;BME280;14791;52.392;13.092;2023-04-08T05:57:43;101834.93;;;12.92;52.00
27304;BME280;14791;52.392;13.092;2023-04-08T06:00:12;101831.21;;;12.95;51.95
27304;BME280;14791;52.392;13.092;2023-04-08T06:02:41;101830.66;;;12.97;51.96
27304;BME280;14791;52.392;13.092;2023-04-08T06:05:10;101830.66;;;12.97;51.92
27304;BME280;14791;52.392;13.092;2023-04-08T06:07:39;101835.95;;;12.98;51.98
27304;BME280;14791;52.392;13.092;2023-04-08T06:10:08;101837.59;;;13.01;52.10
27304;BME280;14791;52.392;13.092;2023-04-08T06:12:37;101842.72;;;13.06;52.15
27304;BME280;14791;52.392;13.092;2023-04-08T06:15:07;101843.87;;;13.09;52.14
27304;BME280;14791;52.392;13.092;2023-04-08T06:17:37;101848.14;;;13.13;52.11
27304;BME280;14791;52.392;13.092;2023-04-08T06:20:07;101850.16;;;13.16;52.09
27304;BME280;14791;52.392;13.092;2023-04-08T06:22:38;101860.64;;;13.21;52.06
27304;BME280;14791;52.392;13.092;2023-04-08T06:25:08;101859.16;;;13.24;52.06
27304;BME280;14791;52.392;13.092;2023-04-08T06:27:37;101863.48;;;13.27;52.08
27304;BME280;14791;52.392;13.092;2023-04-08T06:30:06;101868.63;;;13.31;52.11
27304;BME280;14791;52.392;13.092;2023-04-08T06:32:36;101868.34;;;13.36;52.10
27304;BME280;14791;52.392;13.092;2023-04-08T06:35:05;101868.50;;;13.42;52.04
27304;BME280;14791;52.392;13.092;2023-04-08T06:37:35;101867.77;;;13.47;51.98
27304;BME280;14791;52.392;13.092;2023-04-08T06:40:05;101876.42;;;13.52;51.92
27304;BME280;14791;52.392;13.092;2023-04-08T06:42:35;101876.17;;;13.56;51.88
27304;BME280;14791;52.392;13.092;2023-04-08T06:45:10;101879.94;;;13.61;51.87
27304;BME280;14791;52.392;13.092;2023-04-08T06:47:39;101881.88;;;13.66;51.93
27304;BME280;14791;52.392;13.092;2023-04-08T06:50:08;101879.42;;;13.70;51.93
27304;BME280;14791;52.392;13.092;2023-04-08T06:52:38;101886.66;;;13.77;51.83
27304;BME280;14791;52.392;13.092;2023-04-08T06:55:07;101890.88;;;13.81;51.82
27304;BME280;14791;52.392;13.092;2023-04-08T06:57:36;101895.51;;;13.86;51.71
27304;BME280;14791;52.392;13.092;2023-04-08T07:00:06;101893.45;;;13.91;51.75
27304;BME280;14791;52.392;13.092;2023-04-08T07:02:35;101904.31;;;13.97;51.79
27304;BME280;14791;52.392;13.092;2023-04-08T07:05:05;101907.52;;;14.03;51.81
27304;BME280;14791;52.392;13.092;2023-04-08T07:07:34;101911.66;;;14.09;51.76
27304;BME280;14791;52.392;13.092;2023-04-08T07:10:03;101914.75;;;14.17;51.67
27304;BME280;14791;52.392;13.092;2023-04-08T07:12:32;101915.37;;;14.22;51.60
27304;BME280;14791;52.392;13.092;2023-04-08T07:15:02;101920.38;;;14.29;51.59
27304;BME280;14791;52.392;13.092;2023-04-08T07:17:31;101916.38;;;14.36;51.52
27304;BME280;14791;52.392;13.092;2023-04-08T07:20:01;101917.94;;;14.40;51.31
27304;BME280;14791;52.392;13.092;2023-04-08T07:22:30;101922.19;;;14.44;51.18
27304;BME280;14791;52.392;13.092;2023-04-08T07:24:59;101917.96;;;14.47;51.18
27304;BME280;14791;52.392;13.092;2023-04-08T07:27:30;101926.61;;;14.52;51.07
27304;BME280;14791;52.392;13.092;2023-04-08T07:29:59;101927.80;;;14.55;51.06
27304;BME280;14791;52.392;13.092;2023-04-08T07:32:28;101931.67;;;14.58;51.03
27304;BME280;14791;52.392;13.092;2023-04-08T07:34:58;101927.45;;;14.61;51.01
27304;BME280;14791;52.392;13.092;2023-04-08T07:37:27;101924.97;;;14.65;51.09
27304;BME280;14791;52.392;13.092;2023-04-08T07:39:56;101931.31;;;14.72;51.10
27304;BME280;14791;52.392;13.092;2023-04-08T07:42:25;101929.98;;;14.79;51.10
27304;BME280;14791;52.392;13.092;2023-04-08T07:44:54;101934.44;;;14.87;51.10
27304;BME280;14791;52.392;13.092;2023-04-08T07:47:23;101927.23;;;14.95;51.15
27304;BME280;14791;52.392;13.092;2023-04-08T07:49:52;101935.12;;;15.05;51.15
27304;BME280;14791;52.392;13.092;2023-04-08T07:52:21;101930.89;;;15.15;51.13
27304;BME280;14791;52.392;13.092;2023-04-08T07:54:50;101945.90;;;15.26;51.15
27304;BME280;14791;52.392;13.092;2023-04-08T07:57:19;101940.23;;;15.38;51.06
27304;BME280;14791;52.392;13.092;2023-04-08T07:59:48;101940.31;;;15.51;50.88
27304;BME280;14791;52.392;13.092;2023-04-08T08:02:17;101946.38;;;15.62;50.80
27304;BME280;14791;52.392;13.092;2023-04-08T08:04:46;101947.45;;;15.73;50.57
27304;BME280;14791;52.392;13.092;2023-04-08T08:07:15;101950.42;;;15.83;50.24
27304;BME280;14791;52.392;13.092;2023-04-08T08:09:44;101953.67;;;15.88;50.02
27304;BME280;14791;52.392;13.092;2023-04-08T08:12:13;101952.52;;;15.92;49.87
27304;BME280;14791;52.392;13.092;2023-04-08T08:14:42;101959.05;;;15.95;49.64
27304;BME280;14791;52.392;13.092;2023-04-08T08:17:10;101967.50;;;15.97;49.43
27304;BME280;14791;52.392;13.092;2023-04-08T08:19:39;101963.45;;;15.97;49.29
27304;BME280;14791;52.392;13.092;2023-04-08T08:22:10;101963.86;;;15.98;49.23
27304;BME280;14791;52.392;13.092;2023-04-08T08:24:39;101960.77;;;15.97;49.28
27304;BME280;14791;52.392;13.092;2023-04-08T08:27:10;101954.43;;;15.98;49.21
27304;BME280;14791;52.392;13.092;2023-04-08T08:29:39;101962.11;;;15.97;49.11
27304;BME280;14791;52.392;13.092;2023-04-08T08:32:08;101965.78;;;15.95;49.19
27304;BME280;14791;52.392;13.092;2023-04-08T08:34:37;101960.00;;;15.94;49.16
27304;BME280;14791;52.392;13.092;2023-04-08T08:37:06;101972.52;;;15.95;49.25
27304;BME280;14791;52.392;13.092;2023-04-08T08:39:35;101962.88;;;15.99;49.35
27304;BME280;14791;52.392;13.092;2023-04-08T08:42:04;101964.02;;;16.02;49.33
27304;BME280;14791;52.392;13.092;2023-04-08T08:44:34;101965.56;;;16.06;49.32
27304;BME280;14791;52.392;13.092;2023-04-08T08:47:03;101972.86;;;16.11;49.32
27304;BME280;14791;52.392;13.092;2023-04-08T08:49:33;101973.81;;;16.17;49.23
27304;BME280;14791;52.392;13.092;2023-04-08T08:52:01;101968.00;;;16.23;49.05
27304;BME280;14791;52.392;13.092;2023-04-08T08:54:30;101968.19;;;16.27;48.88
27304;BME280;14791;52.392;13.092;2023-04-08T08:57:00;101980.52;;;16.31;48.76
27304;BME280;14791;52.392;13.092;2023-04-08T08:59:29;101976.84;;;16.32;48.73
27304;BME280;14791;52.392;13.092;2023-04-08T09:01:58;101983.00;;;16.34;48.84
27304;BME280;14791;52.392;13.092;2023-04-08T09:04:27;101988.94;;;16.40;48.86
27304;BME280;14791;52.392;13.092;2023-04-08T09:07:09;101991.25;;;16.46;48.97
27304;BME280;14791;52.392;13.092;2023-04-08T09:09:48;101987.94;;;16.55;49.07
27304;BME280;14791;52.392;13.092;2023-04-08T09:12:18;101995.41;;;16.64;49.02
27304;BME280;14791;52.392;13.092;2023-04-08T09:14:47;101998.08;;;16.71;48.87
27304;BME280;14791;52.392;13.092;2023-04-08T09:17:37;102002.00;;;16.80;48.76
27304;BME280;14791;52.392;13.092;2023-04-08T09:20:05;101995.48;;;16.90;48.73
27304;BME280;14791;52.392;13.092;2023-04-08T09:22:58;102008.27;;;17.00;48.55
27304;BME280;14791;52.392;13.092;2023-04-08T09:25:30;102006.47;;;17.07;48.41
27304;BME280;14791;52.392;13.092;2023-04-08T09:27:59;102013.30;;;17.12;48.27
27304;BME280;14791;52.392;13.092;2023-04-08T09:30:31;102013.45;;;17.16;47.78
27304;BME280;14791;52.392;13.092;2023-04-08T09:33:00;102017.31;;;17.19;47.60
27304;BME280;14791;52.392;13.092;2023-04-08T09:35:31;102016.72;;;17.21;47.41
27304;BME280;14791;52.392;13.092;2023-04-08T09:38:00;102025.19;;;17.22;47.29
27304;BME280;14791;52.392;13.092;2023-04-08T09:40:32;102024.82;;;17.21;47.14
27304;BME280;14791;52.392;13.092;2023-04-08T09:43:04;102025.01;;;17.18;47.05
27304;BME280;14791;52.392;13.092;2023-04-08T09:45:35;102027.94;;;17.15;46.98
27304;BME280;14791;52.392;13.092;2023-04-08T09:48:13;102037.20;;;17.11;47.01
27304;BME280;14791;52.392;13.092;2023-04-08T09:50:50;102038.41;;;17.07;47.09
27304;BME280;14791;52.392;13.092;2023-04-08T09:53:23;102035.03;;;17.04;47.18
27304;BME280;14791;52.392;13.092;2023-04-08T09:55:49;102031.35;;;17.05;47.24
27304;BME280;14791;52.392;13.092;2023-04-08T09:58:27;102034.81;;;17.07;47.30
27304;BME280;14791;52.392;13.092;2023-04-08T10:00:53;102034.50;;;17.11;47.26
27304;BME280;14791;52.392;13.092;2023-04-08T10:03:34;102034.31;;;17.14;47.14
27304;BME280;14791;52.392;13.092;2023-04-08T10:06:04;102037.56;;;17.19;46.90
27304;BME280;14791;52.392;13.092;2023-04-08T10:08:35;102038.52;;;17.18;46.73
27304;BME280;14791;52.392;13.092;2023-04-08T10:11:04;102037.56;;;17.19;46.58
27304;BME280;14791;52.392;13.092;2023-04-08T10:13:33;102045.66;;;17.19;46.49
27304;BME280;14791;52.392;13.092;2023-04-08T10:16:22;102040.26;;;17.19;46.42
27304;BME280;14791;52.392;13.092;2023-04-08T10:18:54;102039.36;;;17.19;46.31
27304;BME280;14791;52.392;13.092;2023-04-08T10:21:40;102046.47;;;17.14;46.36
27304;BME280;14791;52.392;13.092;2023-04-08T10:24:14;102041.66;;;17.12;46.39
27304;BME280;14791;52.392;13.092;2023-04-08T10:26:44;102046.87;;;17.08;46.48
27304;BME280;14791;52.392;13.092;2023-04-08T10:29:28;102043.41;;;17.06;46.42
27304;BME280;14791;52.392;13.092;2023-04-08T10:31:51;102044.75;;;17.06;46.38
27304;BME280;14791;52.392;13.092;2023-04-08T10:34:22;102050.73;;;17.04;46.44
27304;BME280;14791;52.392;13.092;2023-04-08T10:36:56;102043.13;;;17.04;46.48
27304;BME280;14791;52.392;13.092;2023-04-08T10:39:26;102041.69;;;17.05;46.55
27304;BME280;14791;52.392;13.092;2023-04-08T10:41:55;102038.01;;;17.06;46.66
27304;BME280;14791;52.392;13.092;2023-04-08T10:44:27;102036.34;;;17.11;46.63
27304;BME280;14791;52.392;13.092;2023-04-08T10:46:56;102034.31;;;17.14;46.66
27304;BME280;14791;52.392;13.092;2023-04-08T10:49:32;102042.20;;;17.17;46.62
27304;BME280;14791;52.392;13.092;2023-04-08T10:52:07;102046.30;;;17.23;46.65
27304;BME280;14791;52.392;13.092;2023-04-08T10:54:36;102049.66;;;17.27;46.60
27304;BME280;14791;52.392;13.092;2023-04-08T10:57:05;102046.52;;;17.33;46.64
27304;BME280;14791;52.392;13.092;2023-04-08T10:59:34;102046.87;;;17.41;46.57
27304;BME280;14791;52.392;13.092;2023-04-08T11:02:03;102043.89;;;17.51;46.64
27304;BME280;14791;52.392;13.092;2023-04-08T11:04:32;102038.97;;;17.63;46.59
27304;BME280;14791;52.392;13.092;2023-04-08T11:07:04;102044.75;;;17.77;46.24
27304;BME280;14791;52.392;13.092;2023-04-08T11:09:35;102043.89;;;17.90;46.04
27304;BME280;14791;52.392;13.092;2023-04-08T11:12:07;102042.15;;;18.01;45.88
27304;BME280;14791;52.392;13.092;2023-04-08T11:14:36;102039.90;;;18.14;45.68
27304;BME280;14791;52.392;13.092;2023-04-08T11:17:07;102038.98;;;18.26;45.53
27304;BME280;14791;52.392;13.092;2023-04-08T11:19:36;102035.52;;;18.37;45.32
27304;BME280;14791;52.392;13.092;2023-04-08T11:22:06;102045.41;;;18.49;45.47
27304;BME280;14791;52.392;13.092;2023-04-08T11:24:37;102048.66;;;18.60;45.11
27304;BME280;14791;52.392;13.092;2023-04-08T11:27:07;102043.55;;;18.68;44.80
27304;BME280;14791;52.392;13.092;2023-04-08T11:29:36;102040.75;;;18.75;44.87
27304;BME280;14791;52.392;13.092;2023-04-08T11:32:07;102042.25;;;18.79;44.36
27304;BME280;14791;52.392;13.092;2023-04-08T11:34:40;102042.16;;;18.81;44.10
27304;BME280;14791;52.392;13.092;2023-04-08T11:37:09;102048.67;;;18.84;43.93
27304;BME280;14791;52.392;13.092;2023-04-08T11:39:43;102045.50;;;18.84;43.79
27304;BME280;14791;52.392;13.092;2023-04-08T11:42:31;102047.82;;;18.83;43.63
27304;BME280;14791;52.392;13.092;2023-04-08T11:44:56;102048.92;;;18.81;43.56
27304;BME280;14791;52.392;13.092;2023-04-08T11:47:31;102047.13;;;18.74;43.56
27304;BME280;14791;52.392;13.092;2023-04-08T11:50:01;102045.66;;;18.70;43.71
27304;BME280;14791;52.392;13.092;2023-04-08T11:52:45;102045.50;;;18.66;43.59
27304;BME280;14791;52.392;13.092;2023-04-08T11:55:34;102049.30;;;18.63;43.70
27304;BME280;14791;52.392;13.092;2023-04-08T11:58:04;102042.28;;;18.61;43.92
27304;BME280;14791;52.392;13.092;2023-04-08T12:00:34;102039.08;;;18.61;44.11
27304;BME280;14791;52.392;13.092;2023-04-08T12:03:04;102046.36;;;18.66;44.00
27304;BME280;14791;52.392;13.092;2023-04-08T12:05:33;102043.06;;;18.74;44.08
27304;BME280;14791;52.392;13.092;2023-04-08T12:08:03;102042.91;;;18.83;43.87
27304;BME280;14791;52.392;13.092;2023-04-08T12:10:32;102042.31;;;18.90;43.97
27304;BME280;14791;52.392;13.092;2023-04-08T12:13:01;102047.03;;;19.00;43.66
27304;BME280;14791;52.392;13.092;2023-04-08T12:15:30;102045.47;;;19.08;43.46
27304;BME280;14791;52.392;13.092;2023-04-08T12:17:59;102045.73;;;19.17;43.42
27304;BME280;14791;52.392;13.092;2023-04-08T12:20:28;102040.45;;;19.26;43.39
27304;BME280;14791;52.392;13.092;2023-04-08T12:22:57;102045.55;;;19.42;43.31
27304;BME280;14791;52.392;13.092;2023-04-08T12:25:26;102043.60;;;19.61;43.30
27304;BME280;14791;52.392;13.092;2023-04-08T12:27:55;102045.12;;;19.88;43.20
27304;BME280;14791;52.392;13.092;2023-04-08T12:30:24;102037.20;;;20.18;42.94
27304;BME280;14791;52.392;13.092;2023-04-08T12:32:53;102043.31;;;20.43;42.48
27304;BME280;14791;52.392;13.092;2023-04-08T12:35:22;102047.48;;;20.58;41.92
27304;BME280;14791;52.392;13.092;2023-04-08T12:37:51;102048.58;;;20.67;41.59
27304;BME280;14791;52.392;13.092;2023-04-08T12:40:20;102051.53;;;20.70;41.30
27304;BME280;14791;52.392;13.092;2023-04-08T12:42:49;102051.53;;;20.70;41.09
27304;BME280;14791;52.392;13.092;2023-04-08T12:45:18;102049.08;;;20.67;40.75
27304;BME280;14791;52.392;13.092;2023-04-08T12:47:47;102043.53;;;20.63;40.65
27304;BME280;14791;52.392;13.092;2023-04-08T12:50:16;102042.88;;;20.76;40.91
27304;BME280;14791;52.392;13.092;2023-04-08T12:52:45;102042.30;;;20.93;41.01
27304;BME280;14791;52.392;13.092;2023-04-08T12:55:14;102041.83;;;21.15;41.13
27304;BME280;14791;52.392;13.092;2023-04-08T12:57:43;102037.35;;;21.40;40.97
27304;BME280;14791;52.392;13.092;2023-04-08T13:00:13;102037.13;;;21.74;40.79
27304;BME280;14791;52.392;13.092;2023-04-08T13:02:42;102029.09;;;22.28;40.78